Time;durP1;ratioP1;P1;durP2;ratioP2;P2;SDS_P1;SDS_P2;PMS_P1;PMS_P2;Temp;Humidity;BMP_temperature;BMP_pressure;BME280_temperature;BME280_humidity;BME280_pressure;Samples;Min_cycle;Max_cycle;Signal;HPM_P1;HPM_P2
2022/06/29 00:02:10;;;;;;;4.28;2.60;;;;;;;16.18;80.54;68566.34;5071960;28;20489;-77
2022/06/29 00:04:35;;;;;;;5.35;2.60;;;;;;;;;;5070845;28;20036;-76
2022/06/29 00:07:01;;;;;;;4.88;2.78;;;;;;;16.09;81.07;68562.03;5071886;28;20037;-78
2022/06/29 00:09:26;;;;;;;3.72;2.53;;;;;;;16.06;81.29;68552.66;5070712;28;20040;-77
2022/06/29 00:11:51;;;;;;;4.43;3.03;;;;;;;16.01;81.61;68548.09;5075630;28;20067;-77
2022/06/29 00:14:17;;;;;;;3.65;3.08;;;;;;;;;;5069263;28;20124;-78
2022/06/29 00:16:42;;;;;;;4.93;3.15;;;;;;;;;;5070241;28;20051;-77
2022/06/29 00:19:07;;;;;;;6.70;2.92;;;;;;;15.90;82.57;68535.56;5069750;28;20576;-77
2022/06/29 00:21:33;;;;;;;4.53;2.95;;;;;;;15.88;82.77;68538.66;5069292;28;20101;-77
2022/06/29 00:23:59;;;;;;;5.68;2.78;;;;;;;;;;5070553;28;20119;-76
2022/06/29 00:26:25;;;;;;;4.88;3.03;;;;;;;15.73;83.07;68516.75;5070151;28;20063;-75
2022/06/29 00:28:51;;;;;;;5.20;2.72;;;;;;;15.75;83.36;68524.41;5067782;28;20119;-77
2022/06/29 00:31:16;;;;;;;5.32;3.00;;;;;;;;;;5067755;28;20041;-77
2022/06/29 00:33:41;;;;;;;4.57;3.30;;;;;;;15.71;83.63;68513.94;5069413;28;20531;-77
2022/06/29 00:36:07;;;;;;;4.47;3.13;;;;;;;;;;5069856;28;20072;-76
2022/06/29 00:38:32;;;;;;;5.90;3.35;;;;;;;15.64;83.69;68503.25;5069317;28;20051;-77
2022/06/29 00:40:57;;;;;;;4.63;3.38;;;;;;;15.64;83.88;68511.28;5069268;28;20045;-77
2022/06/29 00:43:24;;;;;;;6.05;3.38;;;;;;;15.62;83.79;68503.63;5070141;28;20070;-76
2022/06/29 00:45:50;;;;;;;3.90;3.28;;;;;;;;;;5070633;28;20032;-77
2022/06/29 00:48:16;;;;;;;3.63;3.10;;;;;;;15.56;84.27;68497.38;5070859;28;20040;-77
2022/06/29 00:50:44;;;;;;;7.78;3.63;;;;;;;15.56;84.07;68506.00;5068743;28;20093;-78
2022/06/29 00:53:14;;;;;;;6.70;3.40;;;;;;;15.44;84.38;68484.28;5070248;28;20723;-76
2022/06/29 00:55:41;;;;;;;8.35;3.75;;;;;;;15.49;85.01;68487.28;5070354;28;20041;-77
2022/06/29 00:58:10;;;;;;;7.72;3.78;;;;;;;15.47;84.47;68493.06;5069955;28;20070;-75
2022/06/29 01:00:36;;;;;;;6.07;4.10;;;;;;;15.43;84.87;68488.50;5069266;28;20126;-77
2022/06/29 01:03:02;;;;;;;6.93;3.72;;;;;;;15.42;85.32;68481.41;5070337;28;20093;-78
2022/06/29 01:05:30;;;;;;;5.45;3.78;;;;;;;15.38;84.97;68477.44;5069641;28;20060;-78
2022/06/29 01:07:56;;;;;;;5.07;3.90;;;;;;;15.40;84.97;68479.16;5085078;28;20060;-77
2022/06/29 01:10:21;;;;;;;6.22;4.30;;;;;;;;;;5066143;28;20041;-77
2022/06/29 01:12:48;;;;;;;5.45;3.88;;;;;;;;;;5065444;28;20040;-78
2022/06/29 01:15:13;;;;;;;7.63;4.28;;;;;;;15.24;85.82;68467.41;5065414;28;20482;-77
2022/06/29 01:17:38;;;;;;;5.47;4.40;;;;;;;15.22;85.60;68465.16;5066226;28;20047;-76
2022/06/29 01:20:04;;;;;;;5.40;4.47;;;;;;;15.20;85.56;68457.50;5065071;28;20048;-77
2022/06/29 01:22:30;;;;;;;7.65;4.38;;;;;;;15.25;85.66;68460.53;5056128;28;20094;-77
2022/06/29 01:24:55;;;;;;;6.78;4.38;;;;;;;;;;5055468;28;20105;-77
2022/06/29 01:27:20;;;;;;;7.05;4.70;;;;;;;;;;5066475;28;20413;-77
2022/06/29 01:29:46;;;;;;;4.90;4.40;;;;;;;;;;5053711;28;20044;-77
2022/06/29 01:32:12;;;;;;;5.43;4.47;;;;;;;15.14;85.46;68450.13;5066901;28;20047;-77
2022/06/29 01:34:37;;;;;;;6.72;4.40;;;;;;;;;;5061169;28;20083;-77
2022/06/29 01:37:04;;;;;;;9.13;4.65;;;;;;;15.10;85.83;68452.06;5066888;28;20068;-77
2022/06/29 01:39:30;;;;;;;5.35;4.53;;;;;;;15.06;85.41;68441.56;5064130;28;20051;-77
2022/06/29 01:41:56;;;;;;;5.80;5.20;;;;;;;15.06;85.91;68442.13;5065794;28;20598;-77
2022/06/29 01:44:21;;;;;;;6.30;4.95;;;;;;;15.04;86.40;68439.84;5061446;28;20101;-77
2022/06/29 01:46:46;;;;;;;6.07;5.35;;;;;;;15.01;86.60;68441.22;5062189;28;20099;-77
2022/06/29 01:49:12;;;;;;;6.10;4.78;;;;;;;;;;5063766;28;20075;-77
2022/06/29 01:51:37;;;;;;;6.00;5.40;;;;;;;14.96;87.23;68436.13;5060024;28;20593;-78
2022/06/29 01:54:03;;;;;;;7.78;5.15;;;;;;;14.88;87.82;68427.00;5063509;28;20052;-77
2022/06/29 01:56:28;;;;;;;5.82;5.28;;;;;;;14.86;87.41;68419.91;5064224;28;20049;-77
2022/06/29 01:58:53;;;;;;;6.38;5.43;;;;;;;14.88;87.75;68427.00;5063590;28;20501;-77
2022/06/29 02:01:19;;;;;;;6.15;5.35;;;;;;;14.80;88.14;68412.53;5069333;28;20083;-78
2022/06/29 02:03:44;;;;;;;7.28;5.93;;;;;;;14.79;88.21;68417.31;5067432;28;20102;-77
2022/06/29 02:06:10;;;;;;;6.35;5.72;;;;;;;;;;5068760;28;20082;-76
2022/06/29 02:08:35;;;;;;;7.05;5.82;;;;;;;14.71;88.84;68402.84;5066679;28;20135;-77
2022/06/29 02:11:01;;;;;;;6.18;5.65;;;;;;;14.70;88.52;68398.44;5067838;28;20101;-76
2022/06/29 02:13:27;;;;;;;9.18;5.97;;;;;;;14.72;88.45;68408.78;5066673;28;20041;-77
2022/06/29 02:15:53;;;;;;;9.13;6.35;;;;;;;14.71;88.71;68407.66;5068668;28;20620;-77
2022/06/29 02:18:18;;;;;;;6.97;6.13;;;;;;;14.63;88.51;68399.09;5060263;28;20095;-77
2022/06/29 02:20:44;;;;;;;7.70;6.20;;;;;;;;;;5048046;28;20044;-78
2022/06/29 02:23:09;;;;;;;7.05;6.35;;;;;;;14.59;89.10;68395.13;5053567;28;20422;-77
2022/06/29 02:25:34;;;;;;;7.03;6.30;;;;;;;14.58;89.39;68388.03;5068316;28;20051;-77
2022/06/29 02:28:00;;;;;;;7.60;6.80;;;;;;;14.50;89.59;68387.53;5066726;28;20052;-77
2022/06/29 02:35:55;;;;;;;7.10;6.40;;;;;;;;;;5031800;28;20788;-77
2022/06/29 02:38:21;;;;;;;8.00;6.47;;;;;;;;;;5065132;28;20060;-76
2022/06/29 02:40:46;;;;;;;6.85;6.15;;;;;;;14.47;89.63;68381.41;5068185;28;20094;-77
2022/06/29 02:43:12;;;;;;;7.78;6.97;;;;;;;14.44;89.78;68378.00;5065243;28;20049;-77
2022/06/29 02:45:37;;;;;;;7.18;6.47;;;;;;;;;;5067651;28;20051;-77
2022/06/29 02:48:02;;;;;;;6.75;6.15;;;;;;;;;;5067640;28;20052;-78
2022/06/29 02:50:28;;;;;;;8.05;7.25;;;;;;;14.38;90.50;68366.38;5067637;28;20684;-78
2022/06/29 02:52:54;;;;;;;8.05;6.90;;;;;;;14.36;90.71;68363.56;5068913;28;20036;-77
2022/06/29 02:55:19;;;;;;;7.85;6.95;;;;;;;;;;5063494;28;20045;-78
2022/06/29 02:57:44;;;;;;;7.55;6.85;;;;;;;14.29;91.17;68355.59;5068126;28;20433;-78
2022/06/29 03:00:10;;;;;;;8.05;7.35;;;;;;;;;;5065720;28;20062;-78
2022/06/29 03:02:36;;;;;;;8.90;7.38;;;;;;;;;;5067950;28;20451;-78
2022/06/29 03:05:01;;;;;;;11.45;7.03;;;;;;;;;;5067001;28;20040;-78
2022/06/29 03:07:26;;;;;;;8.00;7.20;;;;;;;14.25;91.43;68359.06;5063947;28;20420;-77
2022/06/29 03:09:52;;;;;;;8.40;7.05;;;;;;;;;;5065390;28;20048;-78
2022/06/29 03:12:17;;;;;;;7.47;6.63;;;;;;;14.25;91.04;68348.94;5067739;28;20044;-79
2022/06/29 03:14:42;;;;;;;7.78;7.07;;;;;;;14.22;91.02;68356.78;5066381;28;20122;-78
2022/06/29 03:17:08;;;;;;;8.00;7.20;;;;;;;14.20;90.95;68351.81;5066353;28;20036;-78
2022/06/29 03:19:33;;;;;;;8.05;7.25;;;;;;;;;;5071758;28;20090;-78
2022/06/29 03:21:59;;;;;;;7.90;7.07;;;;;;;14.17;91.07;68348.41;5070438;28;20563;-79
2022/06/29 03:24:24;;;;;;;8.95;7.90;;;;;;;14.13;91.62;68343.88;5073308;28;20136;-76
2022/06/29 03:26:49;;;;;;;8.70;7.80;;;;;;;14.15;91.28;68346.13;5067947;28;20037;-78
2022/06/29 03:29:15;;;;;;;8.85;7.97;;;;;;;14.14;91.63;68345.00;5069784;28;20064;-78
2022/06/29 03:31:40;;;;;;;9.35;8.32;;;;;;;14.12;91.41;68336.81;5069921;28;20049;-78
2022/06/29 03:34:05;;;;;;;8.55;7.75;;;;;;;;;;5053832;28;20040;-78
2022/06/29 03:36:31;;;;;;;9.75;8.02;;;;;;;14.11;91.33;68341.59;5065473;28;20102;-77
2022/06/29 03:38:56;;;;;;;8.88;8.00;;;;;;;14.11;91.48;68336.22;5074309;28;20496;-77
2022/06/29 03:41:21;;;;;;;8.27;7.50;;;;;;;;;;5066814;28;20066;-77
2022/06/29 03:43:47;;;;;;;9.07;8.18;;;;;;;;;;5066159;28;20577;-77
2022/06/29 03:46:12;;;;;;;10.90;8.37;;;;;;;14.06;91.71;68340.69;5066486;28;20182;-77
2022/06/29 03:48:37;;;;;;;9.15;8.27;;;;;;;14.05;91.68;68329.41;5059810;28;20295;-77
2022/06/29 03:51:03;;;;;;;11.27;8.80;;;;;;;;;;5063760;28;20047;-78
2022/06/29 03:53:28;;;;;;;9.25;8.25;;;;;;;14.02;91.93;68331.34;5064430;28;20119;-77
2022/06/29 03:55:53;;;;;;;8.68;7.97;;;;;;;14.01;91.65;68330.19;5065747;28;20497;-77
2022/06/29 03:58:19;;;;;;;9.07;7.50;;;;;;;14.03;92.04;68327.13;5061276;28;20044;-77
2022/06/29 04:00:44;;;;;;;9.65;7.78;;;;;;;13.98;92.33;68322.03;5060016;28;20053;-77
2022/06/29 04:03:09;;;;;;;8.75;7.85;;;;;;;;;;5066647;28;20055;-76
2022/06/29 04:05:35;;;;;;;9.00;8.20;;;;;;;13.98;92.21;68322.03;5067406;28;20050;-76
2022/06/29 04:08:00;;;;;;;9.55;8.68;;;;;;;13.96;92.71;68325.09;5060828;28;20060;-77
2022/06/29 04:10:25;;;;;;;9.00;8.05;;;;;;;;;;5064331;28;20044;-77
2022/06/29 04:12:51;;;;;;;9.48;8.57;;;;;;;;;;5087875;28;20045;-76
2022/06/29 04:15:16;;;;;;;13.80;8.50;;;;;;;13.97;92.62;68320.88;5076527;28;20036;-76
2022/06/29 04:17:41;;;;;;;11.38;8.30;;;;;;;13.99;92.78;68327.94;5064762;28;20037;-77
2022/06/29 04:20:07;;;;;;;9.35;8.38;;;;;;;;;;5067614;28;20036;-77
2022/06/29 04:22:32;;;;;;;9.15;8.05;;;;;;;;;;5059959;28;20416;-77
2022/06/29 04:24:58;;;;;;;8.98;7.88;;;;;;;;;;5060824;28;20511;-77
2022/06/29 04:27:23;;;;;;;10.48;8.73;;;;;;;;;;5059520;28;20619;-76
2022/06/29 04:29:49;;;;;;;9.05;8.18;;;;;;;14.07;92.66;68331.69;5061508;28;20128;-78
2022/06/29 04:32:14;;;;;;;9.80;8.55;;;;;;;;;;5063596;28;20052;-77
2022/06/29 04:34:39;;;;;;;9.55;8.55;;;;;;;14.16;91.86;68341.38;5060185;28;20076;-77
2022/06/29 04:37:05;;;;;;;10.10;7.40;;;;;;;;;;5062667;28;20040;-76
2022/06/29 04:39:30;;;;;;;8.93;8.13;;;;;;;14.36;91.33;68363.56;5065863;28;20123;-76
2022/06/29 04:41:55;;;;;;;8.48;7.63;;;;;;;;;;5060971;28;20065;-77
2022/06/29 04:44:21;;;;;;;9.73;7.35;;;;;;;14.45;90.51;68379.16;5066136;28;20507;-78
2022/06/29 04:46:47;;;;;;;9.88;7.70;;;;;;;14.53;89.96;68382.94;5065344;28;20058;-78
2022/06/29 04:49:12;;;;;;;9.60;7.53;;;;;;;14.59;90.00;68389.75;5066434;28;20040;-79
2022/06/29 04:51:38;;;;;;;7.93;7.13;;;;;;;14.65;89.26;68396.59;5063309;28;20040;-77
2022/06/29 04:54:03;;;;;;;8.25;7.20;;;;;;;14.77;88.82;68415.03;5077775;28;20464;-77
2022/06/29 04:56:34;;;;;;;8.30;7.25;;;;;;;14.86;88.72;68419.34;5064646;28;20409;-78
2022/06/29 04:59:00;;;;;;;9.43;7.30;;;;;;;14.97;88.54;68436.69;5064743;28;20485;-78
2022/06/29 05:01:26;;;;;;;8.98;6.97;;;;;;;;;;5063525;28;20672;-77
2022/06/29 05:03:53;;;;;;;9.35;6.97;;;;;;;15.13;87.78;68449.53;5066781;28;20044;-77
2022/06/29 05:06:20;;;;;;;6.80;6.20;;;;;;;;;;5067443;28;20094;-77
2022/06/29 05:08:46;;;;;;;7.47;6.60;;;;;;;15.28;87.61;68472.00;5097104;28;20040;-78
2022/06/29 05:11:14;;;;;;;7.32;6.50;;;;;;;15.37;87.72;68481.66;5066051;28;20093;-78
2022/06/29 05:13:40;;;;;;;9.02;6.68;;;;;;;15.45;87.13;68485.41;5065024;28;20487;-78
2022/06/29 05:16:06;;;;;;;7.75;6.25;;;;;;;15.54;86.79;68495.09;5066757;28;20040;-77
2022/06/29 05:18:33;;;;;;;8.10;6.95;;;;;;;15.60;86.62;68501.38;5065696;28;20037;-79
2022/06/29 05:20:59;;;;;;;8.93;6.57;;;;;;;15.66;86.03;68513.56;5071143;28;20041;-77
2022/06/29 05:23:25;;;;;;;8.80;7.38;;;;;;;15.76;86.21;68520.19;5053235;28;20071;-78
2022/06/29 05:25:51;;;;;;;7.22;6.32;;;;;;;15.90;85.57;68540.38;5066339;28;20094;-77
2022/06/29 05:28:16;;;;;;;8.00;6.53;;;;;;;16.02;85.06;68545.97;5065505;28;20078;-78
2022/06/29 05:30:42;;;;;;;7.13;6.30;;;;;;;16.15;85.24;68568.88;5061282;28;20052;-79
2022/06/29 05:33:07;;;;;;;9.15;5.97;;;;;;;16.24;83.44;68573.19;5061740;28;20037;-78
2022/06/29 05:35:33;;;;;;;10.15;6.80;;;;;;;16.32;83.40;68579.63;5070591;28;20526;-78
2022/06/29 05:37:58;;;;;;;7.18;6.00;;;;;;;;;;5065252;28;20033;-78
2022/06/29 05:40:24;;;;;;;9.38;5.57;;;;;;;16.52;82.28;68603.97;5067507;28;20048;-77
2022/06/29 05:42:50;;;;;;;10.13;5.97;;;;;;;16.62;82.48;68615.34;5069490;28;20639;-77
2022/06/29 05:45:15;;;;;;;7.60;5.75;;;;;;;;;;5066292;28;20433;-78
2022/06/29 05:47:41;;;;;;;7.57;4.97;;;;;;;16.88;81.57;68644.47;5070100;28;20094;-78
2022/06/29 05:50:10;;;;;;;9.13;5.30;;;;;;;16.99;80.93;68653.75;5073028;28;20148;-78
2022/06/29 05:52:36;;;;;;;8.57;5.07;;;;;;;17.05;81.43;68663.28;5050574;28;20103;-78
2022/06/29 05:55:01;;;;;;;8.63;5.18;;;;;;;17.17;81.39;68674.28;5058782;28;20044;-78
2022/06/29 05:57:27;;;;;;;9.52;4.97;;;;;;;;;;5071155;28;20447;-77
2022/06/29 05:59:52;;;;;;;8.13;5.20;;;;;;;;;;5067239;28;20238;-77
2022/06/29 06:02:17;;;;;;;5.72;4.68;;;;;;;17.58;79.99;68719.91;5069798;28;20492;-79
2022/06/29 06:04:42;;;;;;;5.68;4.40;;;;;;;;;;5068039;28;20032;-77
2022/06/29 06:07:08;;;;;;;6.00;4.28;;;;;;;17.84;79.01;68751.16;5069634;28;20074;-77
2022/06/29 06:09:33;;;;;;;6.75;4.60;;;;;;;17.99;78.21;68768.84;5068088;28;20037;-78
2022/06/29 06:11:59;;;;;;;4.55;4.00;;;;;;;18.11;77.27;68778.72;5067982;28;20521;-77
2022/06/29 06:14:24;;;;;;;4.88;3.92;;;;;;;18.23;77.71;68795.09;5066540;28;20124;-78
2022/06/29 06:16:50;;;;;;;5.50;3.65;;;;;;;18.39;76.61;68812.81;5069208;28;20059;-80
2022/06/29 06:19:15;;;;;;;8.18;3.38;;;;;;;18.52;75.55;68827.63;5067564;28;20044;-77
2022/06/29 06:21:41;;;;;;;5.13;2.75;;;;;;;18.67;73.86;68844.19;5061323;28;20124;-77
2022/06/29 06:24:06;;;;;;;4.30;2.58;;;;;;;;;;5066689;28;20105;-77
2022/06/29 06:26:31;;;;;;;6.18;2.65;;;;;;;19.03;71.69;68884.75;5066329;28;20124;-76
2022/06/29 06:28:58;;;;;;;4.40;2.00;;;;;;;19.20;70.00;68903.03;5067939;28;20033;-78
2022/06/29 06:31:26;;;;;;;5.30;2.00;;;;;;;19.31;68.67;68915.63;5065212;28;20073;-77
2022/06/29 06:33:53;;;;;;;3.40;1.92;;;;;;;19.53;67.74;68938.03;5067612;28;20846;-77
2022/06/29 06:36:18;;;;;;;5.97;2.00;;;;;;;19.70;66.82;68956.34;5065580;28;20044;-77
2022/06/29 06:38:44;;;;;;;3.67;1.70;;;;;;;19.94;66.75;68986.50;5067171;28;20033;-77
2022/06/29 06:41:21;;;;;;;1.90;1.30;;;;;;;20.06;64.37;69000.19;5067114;28;20040;-78
2022/06/29 06:43:47;;;;;;;2.95;1.80;;;;;;;20.08;63.83;69001.34;5092909;28;20087;-78
2022/06/29 06:46:12;;;;;;;3.08;1.63;;;;;;;20.03;63.54;68996.22;5057222;28;20056;-79
2022/06/29 06:48:38;;;;;;;3.33;1.90;;;;;;;;;;5072992;28;20043;-79
2022/06/29 06:51:03;;;;;;;4.70;1.80;;;;;;;20.05;63.97;68999.06;5069499;28;20091;-77
2022/06/29 06:53:28;;;;;;;4.80;1.75;;;;;;;20.11;64.03;69005.34;5072868;28;20277;-78
2022/06/29 06:55:54;;;;;;;3.13;1.55;;;;;;;20.20;64.06;69010.25;5071793;28;20053;-79
2022/06/29 06:58:19;;;;;;;4.80;2.08;;;;;;;;;;5073444;28;20036;-79
2022/06/29 07:00:44;;;;;;;2.60;1.70;;;;;;;20.52;62.65;69051.09;5064119;28;20067;-78
2022/06/29 07:03:10;;;;;;;3.10;1.70;;;;;;;20.65;63.99;69062.69;5065973;28;20119;-77
2022/06/29 07:05:35;;;;;;;4.20;1.80;;;;;;;20.76;62.53;69077.41;5058722;28;20102;-77
2022/06/29 07:08:01;;;;;;;3.80;1.70;;;;;;;20.85;62.29;69087.69;5071723;28;20056;-77
2022/06/29 07:10:26;;;;;;;5.25;1.65;;;;;;;20.91;63.16;69094.56;5070299;28;20040;-78
2022/06/29 07:12:51;;;;;;;4.28;1.75;;;;;;;20.99;62.94;69101.00;5069163;28;20041;-77
2022/06/29 07:15:17;;;;;;;2.72;1.83;;;;;;;21.08;61.87;69111.28;5068049;28;20670;-77
2022/06/29 07:17:43;;;;;;;4.22;1.63;;;;;;;21.15;60.57;69121.47;5064853;28;20033;-77
2022/06/29 07:20:09;;;;;;;3.42;1.70;;;;;;;21.25;61.80;69127.47;5074464;28;20406;-78
2022/06/29 07:22:34;;;;;;;5.03;2.00;;;;;;;;;;5073670;28;20506;-77
2022/06/29 07:25:00;;;;;;;2.90;1.50;;;;;;;21.26;61.27;69130.75;5074863;28;20041;-78
2022/06/29 07:27:25;;;;;;;2.70;1.60;;;;;;;21.22;61.67;69126.19;5073760;28;20051;-77
2022/06/29 07:29:52;;;;;;;5.63;1.63;;;;;;;21.26;62.20;69133.44;5065685;28;20505;-77
2022/06/29 07:32:18;;;;;;;2.95;1.80;;;;;;;;;;5061754;28;20036;-77
2022/06/29 07:34:43;;;;;;;3.28;1.80;;;;;;;21.32;60.99;69140.91;5069913;28;20060;-77
2022/06/29 07:37:08;;;;;;;3.08;1.58;;;;;;;21.36;60.40;69145.50;5071624;28;20102;-76
2022/06/29 07:39:34;;;;;;;3.38;1.50;;;;;;;21.44;61.08;69151.38;5070205;28;20104;-78
2022/06/29 07:41:59;;;;;;;4.55;1.75;;;;;;;21.54;60.05;69162.25;5071966;28;20060;-78
2022/06/29 07:44:24;;;;;;;2.47;1.35;;;;;;;21.50;59.18;69154.97;5071825;28;20120;-78
2022/06/29 07:46:50;;;;;;;3.47;1.73;;;;;;;21.47;58.92;69154.81;5073347;28;20048;-76
2022/06/29 07:49:15;;;;;;;3.83;1.80;;;;;;;;;;5072321;28;20050;-77
2022/06/29 07:51:40;;;;;;;2.23;1.60;;;;;;;21.48;62.08;69155.38;5072478;28;20539;-78
2022/06/29 07:54:06;;;;;;;4.70;1.75;;;;;;;;;;5074560;28;20635;-77
2022/06/29 07:56:33;;;;;;;3.97;1.80;;;;;;;21.55;60.46;69160.66;5070092;28;20052;-78
2022/06/29 07:59:01;;;;;;;2.95;1.67;;;;;;;21.65;61.67;69171.56;5066284;28;20281;-78
2022/06/29 08:01:27;;;;;;;2.70;1.73;;;;;;;21.66;60.89;69173.25;5071204;28;20044;-78
2022/06/29 08:03:53;;;;;;;3.95;1.70;;;;;;;21.68;61.19;69175.56;5071066;28;20040;-77
2022/06/29 08:06:19;;;;;;;5.10;2.00;;;;;;;21.79;60.43;69193.56;5074597;28;20039;-77
2022/06/29 08:08:44;;;;;;;7.55;2.00;;;;;;;21.89;59.73;69203.84;5071273;28;20112;-78
2022/06/29 08:11:10;;;;;;;3.28;1.65;;;;;;;21.89;59.72;69201.16;5074485;28;20040;-76
2022/06/29 08:13:38;;;;;;;4.20;2.05;;;;;;;21.88;60.71;69202.72;5104004;28;20049;-78
2022/06/29 08:16:04;;;;;;;3.50;1.80;;;;;;;21.90;61.51;69205.59;5073867;28;20155;-77
2022/06/29 08:18:30;;;;;;;2.72;1.70;;;;;;;21.90;60.03;69199.59;5073114;28;20051;-76
2022/06/29 08:20:55;;;;;;;3.95;1.90;;;;;;;21.93;60.93;69208.44;5072740;28;20452;-75
2022/06/29 08:23:20;;;;;;;3.30;1.65;;;;;;;21.99;61.53;69210.47;5073282;28;20118;-78
2022/06/29 08:25:46;;;;;;;3.40;1.90;;;;;;;22.11;61.73;69228.47;5070408;28;20047;-78
2022/06/29 08:28:11;;;;;;;2.97;1.75;;;;;;;22.15;60.90;69228.19;5072472;28;20044;-78
2022/06/29 08:30:36;;;;;;;4.35;2.15;;;;;;;22.19;60.04;69230.09;5073974;28;20052;-76
2022/06/29 08:33:02;;;;;;;7.25;2.17;;;;;;;;;;5064977;28;20048;-78
2022/06/29 08:35:27;;;;;;;3.05;1.70;;;;;;;22.32;60.28;69249.25;5065326;28;20044;-77
2022/06/29 08:37:53;;;;;;;2.38;1.60;;;;;;;;;;5062829;28;20104;-76
2022/06/29 08:40:42;;;;;;;;;;;;;;;;;;;;;
2022/06/29 08:43:11;;;;;;;5.40;2.10;;;;;;;22.33;59.90;69253.09;5056266;28;20494;-78
2022/06/29 08:45:43;;;;;;;3.43;1.60;;;;;;;22.35;59.09;69249.97;5063377;28;20102;-76
2022/06/29 08:48:09;;;;;;;2.72;1.75;;;;;;;22.39;58.27;69257.84;5070424;28;20041;-77
2022/06/29 08:50:37;;;;;;;5.88;1.70;;;;;;;22.50;61.19;69267.16;5065458;28;20086;-78
2022/06/29 08:53:05;;;;;;;4.45;1.70;;;;;;;22.52;59.47;69274.88;5099324;28;20053;-76
2022/06/29 08:55:33;;;;;;;3.15;1.80;;;;;;;22.56;58.58;69276.75;5064771;28;20736;-77
2022/06/29 08:57:59;;;;;;;5.90;2.00;;;;;;;22.69;60.22;69293.75;5069793;28;20551;-76
2022/06/29 09:00:24;;;;;;;4.47;1.70;;;;;;;22.80;56.83;69306.38;5068976;28;20036;-78
2022/06/29 09:02:50;;;;;;;4.00;1.85;;;;;;;22.80;58.13;69305.81;5070880;28;20089;-78
2022/06/29 09:05:15;;;;;;;2.60;1.52;;;;;;;22.81;58.76;69304.78;5070414;28;20118;-76
2022/06/29 09:07:41;;;;;;;3.40;2.00;;;;;;;;;;5069166;28;20115;-77
2022/06/29 09:10:12;;;;;;;2.80;1.92;;;;;;;22.80;55.70;69300.94;5067543;28;20054;-78
2022/06/29 09:12:38;;;;;;;4.03;1.95;;;;;;;22.83;56.96;69306.53;5070056;28;20044;-77
2022/06/29 09:15:08;;;;;;;3.10;2.10;;;;;;;22.83;56.76;69307.09;5063449;28;20056;-79
2022/06/29 09:20:07;;;;;;;3.58;1.95;;;;;;;22.86;58.55;69313.25;5024327;28;20112;-86
2022/06/29 09:22:32;;;;;;;4.70;2.13;;;;;;;22.81;56.22;69307.50;5028286;28;20042;-87
2022/06/29 09:24:58;;;;;;;3.83;2.10;;;;;;;22.90;57.47;69314.53;5030822;28;20047;-87
2022/06/29 09:27:25;;;;;;;4.28;2.35;;;;;;;22.89;55.89;69313.38;5025326;28;20033;-87
2022/06/29 09:29:52;;;;;;;5.53;2.20;;;;;;;22.87;57.33;69314.41;5027996;28;20057;-86
2022/06/29 09:32:19;;;;;;;3.38;1.92;;;;;;;22.90;57.22;69317.25;5029124;28;20041;-86
2022/06/29 09:34:52;;;;;;;5.57;2.25;;;;;;;22.87;57.13;69311.69;5024177;28;20050;-86
2022/06/29 09:37:20;;;;;;;5.43;2.20;;;;;;;22.91;60.34;69313.53;5023733;28;20053;-87
2022/06/29 09:39:50;;;;;;;5.63;2.45;;;;;;;22.92;59.44;69319.53;5021552;28;20044;-87
2022/06/29 09:42:21;;;;;;;4.45;2.22;;;;;;;22.90;56.98;69317.25;5026854;28;20568;-87
2022/06/29 09:44:47;;;;;;;5.25;2.10;;;;;;;22.93;58.41;69318.56;5028017;28;20164;-86
2022/06/29 09:47:16;;;;;;;65.18;5.00;;;;;;;22.98;59.31;69331.88;5026322;28;20412;-87
2022/06/29 09:49:51;;;;;;;4.15;2.33;;;;;;;22.97;59.84;69319.88;5028878;28;20172;-86
2022/06/29 09:52:17;;;;;;;4.13;2.35;;;;;;;;;;4990444;28;20684;-87
2022/06/29 09:54:54;;;;;;;3.28;2.00;;;;;;;22.98;59.32;69321.00;5027306;28;20049;-87
2022/06/29 09:57:22;;;;;;;4.50;1.90;;;;;;;22.99;60.25;69322.16;5030518;28;20096;-87
2022/06/29 10:02:48;;;;;;;4.13;2.20;;;;;;;22.97;58.13;69325.28;5021431;28;20413;-86
2022/06/29 10:05:20;;;;;;;4.22;2.10;;;;;;;22.89;57.11;69313.97;5026440;28;20041;-87
2022/06/29 10:07:51;;;;;;;12.43;3.33;;;;;;;22.90;58.70;69315.13;5027014;28;20045;-87
2022/06/29 10:10:19;;;;;;;5.47;2.30;;;;;;;22.91;58.97;69318.41;5027101;28;20056;-87
2022/06/29 10:13:41;;;;;;;6.85;2.63;;;;;;;22.99;61.53;69324.88;5009181;28;20553;-86
2022/06/29 10:16:33;;;;;;;18.20;3.30;;;;;;;22.94;60.60;69316.41;5025473;28;20623;-87
2022/06/29 10:19:08;;;;;;;4.00;2.00;;;;;;;22.96;60.69;69322.00;5038128;28;20655;-86
2022/06/29 10:21:34;;;;;;;4.72;1.80;;;;;;;22.98;59.56;69326.44;5047072;28;20047;-86
2022/06/29 10:24:00;;;;;;;5.03;2.13;;;;;;;22.98;57.32;69326.44;5047734;28;20512;-86
2022/06/29 10:26:30;;;;;;;4.18;1.75;;;;;;;;;;5049007;28;20036;-86
2022/06/29 10:28:57;;;;;;;3.50;1.88;;;;;;;23.06;58.85;69335.03;5048933;28;20041;-86
2022/06/29 10:31:50;;;;;;;3.08;1.80;;;;;;;23.08;59.78;69335.19;5050518;28;20043;-86
2022/06/29 10:37:05;;;;;;;3.88;1.63;;;;;;;23.07;59.29;69336.16;5044474;28;20663;-88
2022/06/29 10:39:45;;;;;;;4.20;2.00;;;;;;;23.04;57.85;69333.31;5044085;28;20451;-86
2022/06/29 10:45:13;;;;;;;7.47;2.10;;;;;;;22.97;57.29;69325.28;5047297;28;20095;-85
2022/06/29 10:47:39;;;;;;;6.72;2.40;;;;;;;22.97;57.82;69322.56;5049874;28;20110;-86
2022/06/29 10:50:17;;;;;;;3.88;2.00;;;;;;;;;;5037373;28;20045;-87
2022/06/29 10:52:44;;;;;;;5.22;2.38;;;;;;;23.05;60.80;69329.03;5051017;28;20090;-86
2022/06/29 10:55:11;;;;;;;3.92;2.50;;;;;;;23.03;58.66;69323.44;5050716;28;20055;-86
2022/06/29 10:57:38;;;;;;;3.85;2.35;;;;;;;23.07;57.96;69336.16;5056456;28;20094;-86
2022/06/29 11:00:09;;;;;;;3.95;2.67;;;;;;;23.11;58.56;69338.63;5035783;28;20041;-86
2022/06/29 11:02:35;;;;;;;6.25;2.65;;;;;;;23.15;58.13;69345.91;5069685;28;20128;-88
2022/06/29 11:05:01;;;;;;;7.75;2.67;;;;;;;23.20;59.87;69348.34;5064661;28;20030;-87
2022/06/29 11:14:00;;;;;;;6.55;2.65;;;;;;;23.57;60.05;69384.75;4989494;28;20082;-88
2022/06/29 11:16:37;;;;;;;4.13;2.80;;;;;;;23.53;60.08;69379.56;4912456;28;20065;-87
2022/06/29 11:19:04;;;;;;;7.60;3.08;;;;;;;23.51;60.57;69380.03;4963668;28;20105;-88
2022/06/29 11:21:30;;;;;;;6.10;3.58;;;;;;;23.60;59.50;69388.19;4968526;28;20070;-87
2022/06/29 11:24:03;;;;;;;4.80;2.67;;;;;;;23.88;59.79;69427.31;4967925;28;20416;-88
2022/06/29 11:26:29;;;;;;;4.72;2.63;;;;;;;24.10;59.50;69447.06;4969116;28;20051;-89
2022/06/29 11:29:03;;;;;;;4.80;3.10;;;;;;;24.26;58.77;69464.84;4944452;28;20059;-88
2022/06/29 11:31:46;;;;;;;6.60;3.35;;;;;;;24.22;58.35;69462.41;4891468;29;20059;-88
2022/06/29 11:34:13;;;;;;;4.20;2.92;;;;;;;24.21;57.88;69458.53;4894819;29;20070;-87
2022/06/29 11:36:38;;;;;;;5.88;3.08;;;;;;;24.29;57.53;69473.16;4893252;29;20048;-86
2022/06/29 11:39:06;;;;;;;5.75;2.80;;;;;;;24.27;57.59;69466.00;4907165;29;20911;-86
2022/06/29 11:44:27;;;;;;;5.18;2.80;;;;;;;24.16;56.24;69456.09;4901258;28;20620;-87
2022/06/29 11:46:53;;;;;;;5.10;2.70;;;;;;;24.29;57.13;69467.72;4967644;28;20505;-87
2022/06/29 11:49:36;;;;;;;3.45;2.50;;;;;;;24.39;57.20;69481.91;4968504;28;20159;-88
2022/06/29 11:52:08;;;;;;;5.35;2.38;;;;;;;24.47;56.99;69490.53;4964614;28;20750;-87
2022/06/29 11:54:48;;;;;;;4.63;2.78;;;;;;;24.53;55.42;69500.69;4968442;28;20125;-86
2022/06/29 11:57:18;;;;;;;5.53;2.60;;;;;;;24.58;56.24;69503.13;4956113;28;20066;-86
2022/06/29 11:59:46;;;;;;;3.78;2.42;;;;;;;24.70;56.28;69519.03;4953626;28;20235;-86
2022/06/29 12:02:19;;;;;;;5.05;2.45;;;;;;;24.70;54.08;69516.31;4944092;28;20884;-86
2022/06/29 12:05:07;;;;;;;3.28;2.10;;;;;;;24.67;51.15;69515.59;4947413;28;20077;-87
2022/06/29 12:07:35;;;;;;;5.10;2.40;;;;;;;24.58;53.11;69502.56;4992009;28;20517;-87
2022/06/29 12:10:01;;;;;;;6.95;2.00;;;;;;;24.60;52.30;69502.13;5008768;28;20617;-87
2022/06/29 12:12:26;;;;;;;3.53;2.22;;;;;;;24.56;51.75;69497.56;5034504;28;20091;-87
2022/06/29 12:15:04;;;;;;;4.75;2.20;;;;;;;24.59;52.43;69506.44;4995164;28;20738;-86
2022/06/29 12:17:30;;;;;;;5.07;2.35;;;;;;;24.58;53.02;69502.56;4948918;28;20035;-87
2022/06/29 12:20:20;;;;;;;5.57;2.35;;;;;;;24.79;54.62;69521.19;4923522;28;20070;-89
2022/06/29 12:22:48;;;;;;;4.15;2.53;;;;;;;25.13;52.25;69565.06;4911540;28;20088;-89
2022/06/29 12:25:24;;;;;;;5.80;2.60;;;;;;;25.27;50.54;69580.59;4870565;29;20044;-88
2022/06/29 12:28:19;;;;;;;3.72;2.33;;;;;;;25.50;51.46;69603.09;4852269;29;20126;-88
2022/06/29 12:30:44;;;;;;;5.63;2.03;;;;;;;25.70;52.49;69628.78;4867115;29;20053;-86
2022/06/29 12:33:10;;;;;;;6.00;2.10;;;;;;;26.01;50.02;69666.53;4880803;29;20138;-86